sensor_id;sensor_type;location;lat;lon;timestamp;P1;durP1;ratioP1;P2;durP2;ratioP2
15451;SDS011;7827;53.594;9.938;2022-12-18T00:00:27;30.90;;;17.53;;
15451;SDS011;7827;53.594;9.938;2022-12-18T00:02:57;29.20;;;18.17;;
15451;SDS011;7827;53.594;9.938;2022-12-18T00:05:26;29.83;;;17.83;;
15451;SDS011;7827;53.594;9.938;2022-12-18T00:07:54;27.07;;;16.30;;
15451;SDS011;7827;53.594;9.938;2022-12-18T00:10:22;27.40;;;17.10;;
15451;SDS011;7827;53.594;9.938;2022-12-18T00:12:51;28.70;;;17.40;;
15451;SDS011;7827;53.594;9.938;2022-12-18T00:15:19;31.57;;;17.60;;
15451;SDS011;7827;53.594;9.938;2022-12-18T00:17:47;29.07;;;16.80;;
15451;SDS011;7827;53.594;9.938;2022-12-18T00:20:18;27.23;;;17.77;;
15451;SDS011;7827;53.594;9.938;2022-12-18T00:22:51;27.37;;;16.63;;
15451;SDS011;7827;53.594;9.938;2022-12-18T00:25:20;32.13;;;17.03;;
15451;SDS011;7827;53.594;9.938;2022-12-18T00:27:49;28.27;;;17.73;;
15451;SDS011;7827;53.594;9.938;2022-12-18T00:30:18;28.73;;;16.67;;
15451;SDS011;7827;53.594;9.938;2022-12-18T00:32:46;29.43;;;17.37;;
15451;SDS011;7827;53.594;9.938;2022-12-18T00:35:15;31.23;;;18.30;;
15451;SDS011;7827;53.594;9.938;2022-12-18T00:37:46;28.07;;;17.30;;
15451;SDS011;7827;53.594;9.938;2022-12-18T00:40:15;31.53;;;17.67;;
15451;SDS011;7827;53.594;9.938;2022-12-18T00:42:43;29.10;;;17.70;;
15451;SDS011;7827;53.594;9.938;2022-12-18T00:45:22;30.37;;;17.10;;
15451;SDS011;7827;53.594;9.938;2022-12-18T00:47:51;28.30;;;17.60;;
15451;SDS011;7827;53.594;9.938;2022-12-18T00:50:21;31.70;;;17.57;;
15451;SDS011;7827;53.594;9.938;2022-12-18T00:52:51;27.07;;;16.23;;
15451;SDS011;7827;53.594;9.938;2022-12-18T00:55:19;33.77;;;18.60;;
15451;SDS011;7827;53.594;9.938;2022-12-18T00:57:48;29.70;;;17.77;;
15451;SDS011;7827;53.594;9.938;2022-12-18T01:00:18;31.73;;;17.63;;
15451;SDS011;7827;53.594;9.938;2022-12-18T01:02:46;29.37;;;16.90;;
15451;SDS011;7827;53.594;9.938;2022-12-18T01:05:15;30.63;;;18.37;;
15451;SDS011;7827;53.594;9.938;2022-12-18T01:07:44;28.87;;;17.37;;
15451;SDS011;7827;53.594;9.938;2022-12-18T01:10:14;28.17;;;17.53;;
15451;SDS011;7827;53.594;9.938;2022-12-18T01:12:42;28.63;;;17.07;;
15451;SDS011;7827;53.594;9.938;2022-12-18T01:15:10;34.57;;;16.83;;
15451;SDS011;7827;53.594;9.938;2022-12-18T01:17:42;28.80;;;17.57;;
15451;SDS011;7827;53.594;9.938;2022-12-18T01:20:11;29.03;;;17.20;;
15451;SDS011;7827;53.594;9.938;2022-12-18T01:22:40;26.70;;;17.07;;
15451;SDS011;7827;53.594;9.938;2022-12-18T01:25:08;26.83;;;16.80;;
15451;SDS011;7827;53.594;9.938;2022-12-18T01:27:38;29.13;;;16.53;;
15451;SDS011;7827;53.594;9.938;2022-12-18T01:30:07;28.57;;;16.43;;
15451;SDS011;7827;53.594;9.938;2022-12-18T01:32:36;31.23;;;17.57;;
15451;SDS011;7827;53.594;9.938;2022-12-18T01:35:05;27.43;;;16.70;;
15451;SDS011;7827;53.594;9.938;2022-12-18T01:37:34;26.40;;;15.87;;
15451;SDS011;7827;53.594;9.938;2022-12-18T01:40:03;25.10;;;16.20;;
15451;SDS011;7827;53.594;9.938;2022-12-18T01:42:33;27.20;;;16.60;;
15451;SDS011;7827;53.594;9.938;2022-12-18T01:45:04;25.37;;;16.33;;
15451;SDS011;7827;53.594;9.938;2022-12-18T01:47:53;25.20;;;15.40;;
15451;SDS011;7827;53.594;9.938;2022-12-18T01:50:24;24.07;;;15.60;;
15451;SDS011;7827;53.594;9.938;2022-12-18T01:53:02;24.10;;;15.37;;
15451;SDS011;7827;53.594;9.938;2022-12-18T01:55:35;24.60;;;14.93;;
15451;SDS011;7827;53.594;9.938;2022-12-18T01:58:08;26.67;;;15.83;;
15451;SDS011;7827;53.594;9.938;2022-12-18T02:00:38;26.03;;;15.30;;
15451;SDS011;7827;53.594;9.938;2022-12-18T02:03:07;30.33;;;15.70;;
15451;SDS011;7827;53.594;9.938;2022-12-18T02:05:40;25.80;;;15.13;;
15451;SDS011;7827;53.594;9.938;2022-12-18T02:08:16;25.10;;;15.10;;
15451;SDS011;7827;53.594;9.938;2022-12-18T02:10:55;30.97;;;14.57;;
15451;SDS011;7827;53.594;9.938;2022-12-18T02:13:32;22.13;;;14.93;;
15451;SDS011;7827;53.594;9.938;2022-12-18T02:16:17;24.57;;;15.87;;
15451;SDS011;7827;53.594;9.938;2022-12-18T02:18:53;25.50;;;14.87;;
15451;SDS011;7827;53.594;9.938;2022-12-18T02:21:28;25.63;;;15.10;;
15451;SDS011;7827;53.594;9.938;2022-12-18T02:24:12;26.77;;;16.57;;
15451;SDS011;7827;53.594;9.938;2022-12-18T02:26:59;23.53;;;15.50;;
15451;SDS011;7827;53.594;9.938;2022-12-18T02:29:34;29.43;;;15.90;;
15451;SDS011;7827;53.594;9.938;2022-12-18T02:32:08;25.57;;;15.87;;
15451;SDS011;7827;53.594;9.938;2022-12-18T02:34:44;23.97;;;14.87;;
15451;SDS011;7827;53.594;9.938;2022-12-18T02:37:16;30.30;;;16.60;;
15451;SDS011;7827;53.594;9.938;2022-12-18T02:39:49;24.47;;;15.20;;
15451;SDS011;7827;53.594;9.938;2022-12-18T02:42:23;25.97;;;15.47;;
15451;SDS011;7827;53.594;9.938;2022-12-18T02:44:52;25.77;;;15.83;;
15451;SDS011;7827;53.594;9.938;2022-12-18T02:47:26;25.13;;;15.43;;
15451;SDS011;7827;53.594;9.938;2022-12-18T02:50:00;28.17;;;17.33;;
15451;SDS011;7827;53.594;9.938;2022-12-18T02:52:37;23.37;;;14.90;;
15451;SDS011;7827;53.594;9.938;2022-12-18T02:55:20;31.90;;;15.87;;
15451;SDS011;7827;53.594;9.938;2022-12-18T02:58:10;28.23;;;15.63;;
15451;SDS011;7827;53.594;9.938;2022-12-18T03:00:51;24.30;;;15.53;;
15451;SDS011;7827;53.594;9.938;2022-12-18T03:03:29;26.57;;;15.33;;
15451;SDS011;7827;53.594;9.938;2022-12-18T03:06:07;28.50;;;16.73;;
15451;SDS011;7827;53.594;9.938;2022-12-18T03:08:43;25.97;;;15.00;;
15451;SDS011;7827;53.594;9.938;2022-12-18T03:11:17;26.20;;;15.03;;
15451;SDS011;7827;53.594;9.938;2022-12-18T03:14:07;27.77;;;15.10;;
15451;SDS011;7827;53.594;9.938;2022-12-18T03:16:40;22.53;;;14.90;;
15451;SDS011;7827;53.594;9.938;2022-12-18T03:19:11;24.97;;;15.17;;
15451;SDS011;7827;53.594;9.938;2022-12-18T03:21:49;25.10;;;14.80;;
15451;SDS011;7827;53.594;9.938;2022-12-18T03:24:24;25.73;;;14.20;;
15451;SDS011;7827;53.594;9.938;2022-12-18T03:26:57;19.67;;;13.70;;
15451;SDS011;7827;53.594;9.938;2022-12-18T03:29:32;21.10;;;13.67;;
15451;SDS011;7827;53.594;9.938;2022-12-18T03:32:07;24.23;;;13.30;;
15451;SDS011;7827;53.594;9.938;2022-12-18T03:34:43;22.40;;;13.77;;
15451;SDS011;7827;53.594;9.938;2022-12-18T03:37:19;24.53;;;13.83;;
15451;SDS011;7827;53.594;9.938;2022-12-18T03:39:47;23.30;;;14.50;;
15451;SDS011;7827;53.594;9.938;2022-12-18T03:42:17;22.97;;;13.73;;
15451;SDS011;7827;53.594;9.938;2022-12-18T03:45:07;24.07;;;13.20;;
15451;SDS011;7827;53.594;9.938;2022-12-18T03:47:48;22.53;;;12.97;;
15451;SDS011;7827;53.594;9.938;2022-12-18T03:50:35;19.70;;;12.57;;
15451;SDS011;7827;53.594;9.938;2022-12-18T03:53:18;24.90;;;13.00;;
15451;SDS011;7827;53.594;9.938;2022-12-18T03:56:00;20.87;;;13.27;;
15451;SDS011;7827;53.594;9.938;2022-12-18T03:58:36;21.93;;;13.50;;
15451;SDS011;7827;53.594;9.938;2022-12-18T04:01:22;24.53;;;13.70;;
15451;SDS011;7827;53.594;9.938;2022-12-18T04:03:58;21.27;;;12.70;;
15451;SDS011;7827;53.594;9.938;2022-12-18T04:06:32;21.70;;;12.90;;
15451;SDS011;7827;53.594;9.938;2022-12-18T04:09:03;22.27;;;13.47;;
15451;SDS011;7827;53.594;9.938;2022-12-18T04:11:36;22.30;;;13.33;;
15451;SDS011;7827;53.594;9.938;2022-12-18T04:14:05;23.00;;;12.73;;
15451;SDS011;7827;53.594;9.938;2022-12-18T04:16:38;20.07;;;13.23;;
15451;SDS011;7827;53.594;9.938;2022-12-18T04:19:10;21.43;;;12.90;;
15451;SDS011;7827;53.594;9.938;2022-12-18T04:21:41;25.97;;;13.20;;
15451;SDS011;7827;53.594;9.938;2022-12-18T04:24:11;21.83;;;14.03;;
15451;SDS011;7827;53.594;9.938;2022-12-18T04:26:46;21.50;;;13.87;;
15451;SDS011;7827;53.594;9.938;2022-12-18T04:29:17;21.00;;;13.53;;
15451;SDS011;7827;53.594;9.938;2022-12-18T04:31:47;22.77;;;13.03;;
15451;SDS011;7827;53.594;9.938;2022-12-18T04:34:16;23.77;;;13.30;;
15451;SDS011;7827;53.594;9.938;2022-12-18T04:36:49;19.00;;;13.13;;
15451;SDS011;7827;53.594;9.938;2022-12-18T04:39:17;19.67;;;13.20;;
15451;SDS011;7827;53.594;9.938;2022-12-18T04:41:47;23.87;;;14.00;;
15451;SDS011;7827;53.594;9.938;2022-12-18T04:44:16;21.07;;;13.67;;
15451;SDS011;7827;53.594;9.938;2022-12-18T04:46:44;26.87;;;13.57;;
15451;SDS011;7827;53.594;9.938;2022-12-18T04:49:14;23.37;;;14.03;;
15451;SDS011;7827;53.594;9.938;2022-12-18T04:51:42;21.30;;;13.53;;
15451;SDS011;7827;53.594;9.938;2022-12-18T04:54:11;23.10;;;13.50;;
15451;SDS011;7827;53.594;9.938;2022-12-18T04:56:39;19.90;;;13.50;;
15451;SDS011;7827;53.594;9.938;2022-12-18T04:59:07;23.63;;;13.57;;
15451;SDS011;7827;53.594;9.938;2022-12-18T05:01:35;19.97;;;12.50;;
15451;SDS011;7827;53.594;9.938;2022-12-18T05:04:04;23.73;;;13.10;;
15451;SDS011;7827;53.594;9.938;2022-12-18T05:06:33;23.87;;;12.93;;
15451;SDS011;7827;53.594;9.938;2022-12-18T05:09:02;22.97;;;13.63;;
15451;SDS011;7827;53.594;9.938;2022-12-18T05:11:31;18.57;;;12.47;;
15451;SDS011;7827;53.594;9.938;2022-12-18T05:13:59;28.37;;;14.03;;
15451;SDS011;7827;53.594;9.938;2022-12-18T05:16:27;25.10;;;13.37;;
15451;SDS011;7827;53.594;9.938;2022-12-18T05:18:56;24.60;;;14.00;;
15451;SDS011;7827;53.594;9.938;2022-12-18T05:21:24;25.77;;;13.87;;
15451;SDS011;7827;53.594;9.938;2022-12-18T05:23:53;21.37;;;12.90;;
15451;SDS011;7827;53.594;9.938;2022-12-18T05:26:22;23.10;;;13.03;;
15451;SDS011;7827;53.594;9.938;2022-12-18T05:28:50;22.13;;;12.60;;
15451;SDS011;7827;53.594;9.938;2022-12-18T05:31:18;20.60;;;13.07;;
15451;SDS011;7827;53.594;9.938;2022-12-18T05:33:46;19.40;;;12.80;;
15451;SDS011;7827;53.594;9.938;2022-12-18T05:36:15;23.07;;;13.57;;
15451;SDS011;7827;53.594;9.938;2022-12-18T05:38:43;26.47;;;13.87;;
15451;SDS011;7827;53.594;9.938;2022-12-18T05:41:12;25.43;;;14.00;;
15451;SDS011;7827;53.594;9.938;2022-12-18T05:43:41;25.27;;;13.20;;
15451;SDS011;7827;53.594;9.938;2022-12-18T05:46:11;21.57;;;14.40;;
15451;SDS011;7827;53.594;9.938;2022-12-18T05:48:58;21.80;;;13.30;;
15451;SDS011;7827;53.594;9.938;2022-12-18T05:51:27;23.27;;;13.73;;
15451;SDS011;7827;53.594;9.938;2022-12-18T05:53:55;22.77;;;13.20;;
15451;SDS011;7827;53.594;9.938;2022-12-18T05:56:25;18.23;;;12.90;;
15451;SDS011;7827;53.594;9.938;2022-12-18T05:58:53;23.67;;;14.17;;
15451;SDS011;7827;53.594;9.938;2022-12-18T06:01:23;22.80;;;14.03;;
15451;SDS011;7827;53.594;9.938;2022-12-18T06:03:53;25.73;;;14.60;;
15451;SDS011;7827;53.594;9.938;2022-12-18T06:06:23;23.63;;;14.03;;
15451;SDS011;7827;53.594;9.938;2022-12-18T06:08:54;25.13;;;15.83;;
15451;SDS011;7827;53.594;9.938;2022-12-18T06:11:25;21.90;;;14.40;;
15451;SDS011;7827;53.594;9.938;2022-12-18T06:13:55;27.27;;;15.87;;
15451;SDS011;7827;53.594;9.938;2022-12-18T06:16:26;20.67;;;15.27;;
15451;SDS011;7827;53.594;9.938;2022-12-18T06:18:56;24.93;;;16.10;;
15451;SDS011;7827;53.594;9.938;2022-12-18T06:21:25;23.73;;;15.70;;
15451;SDS011;7827;53.594;9.938;2022-12-18T06:23:54;22.80;;;15.57;;
15451;SDS011;7827;53.594;9.938;2022-12-18T06:26:24;23.27;;;16.07;;
15451;SDS011;7827;53.594;9.938;2022-12-18T06:28:54;23.27;;;16.17;;
15451;SDS011;7827;53.594;9.938;2022-12-18T06:31:24;24.50;;;16.37;;
15451;SDS011;7827;53.594;9.938;2022-12-18T06:33:53;25.67;;;17.10;;
15451;SDS011;7827;53.594;9.938;2022-12-18T06:36:21;24.83;;;16.23;;
15451;SDS011;7827;53.594;9.938;2022-12-18T06:38:50;26.03;;;15.70;;
15451;SDS011;7827;53.594;9.938;2022-12-18T06:41:18;30.97;;;16.43;;
15451;SDS011;7827;53.594;9.938;2022-12-18T06:43:50;25.17;;;14.77;;
15451;SDS011;7827;53.594;9.938;2022-12-18T06:46:25;23.43;;;15.87;;
15451;SDS011;7827;53.594;9.938;2022-12-18T06:48:54;25.13;;;16.07;;
15451;SDS011;7827;53.594;9.938;2022-12-18T06:51:23;29.63;;;17.43;;
15451;SDS011;7827;53.594;9.938;2022-12-18T06:53:52;27.07;;;16.50;;
15451;SDS011;7827;53.594;9.938;2022-12-18T06:56:20;27.73;;;16.97;;
15451;SDS011;7827;53.594;9.938;2022-12-18T06:58:50;28.10;;;15.90;;
15451;SDS011;7827;53.594;9.938;2022-12-18T07:01:19;27.63;;;15.77;;
15451;SDS011;7827;53.594;9.938;2022-12-18T07:03:51;27.47;;;15.23;;
15451;SDS011;7827;53.594;9.938;2022-12-18T07:06:21;30.57;;;15.67;;
15451;SDS011;7827;53.594;9.938;2022-12-18T07:08:53;23.33;;;13.97;;
15451;SDS011;7827;53.594;9.938;2022-12-18T07:11:22;23.40;;;14.23;;
15451;SDS011;7827;53.594;9.938;2022-12-18T07:13:52;21.40;;;13.27;;
15451;SDS011;7827;53.594;9.938;2022-12-18T07:16:21;25.93;;;13.30;;
15451;SDS011;7827;53.594;9.938;2022-12-18T07:18:51;19.87;;;13.00;;
15451;SDS011;7827;53.594;9.938;2022-12-18T07:21:21;20.37;;;13.07;;
15451;SDS011;7827;53.594;9.938;2022-12-18T07:23:51;22.83;;;13.17;;
15451;SDS011;7827;53.594;9.938;2022-12-18T07:26:20;23.00;;;13.10;;
15451;SDS011;7827;53.594;9.938;2022-12-18T07:28:53;21.07;;;13.50;;
15451;SDS011;7827;53.594;9.938;2022-12-18T07:31:25;22.57;;;13.90;;
15451;SDS011;7827;53.594;9.938;2022-12-18T07:33:54;20.80;;;14.03;;
15451;SDS011;7827;53.594;9.938;2022-12-18T07:36:23;21.80;;;13.67;;
15451;SDS011;7827;53.594;9.938;2022-12-18T07:38:51;24.50;;;12.80;;
15451;SDS011;7827;53.594;9.938;2022-12-18T07:41:20;23.13;;;14.10;;
15451;SDS011;7827;53.594;9.938;2022-12-18T07:43:48;23.20;;;13.67;;
15451;SDS011;7827;53.594;9.938;2022-12-18T07:46:19;21.47;;;13.17;;
15451;SDS011;7827;53.594;9.938;2022-12-18T07:48:49;25.00;;;14.23;;
15451;SDS011;7827;53.594;9.938;2022-12-18T07:51:17;22.13;;;13.87;;
15451;SDS011;7827;53.594;9.938;2022-12-18T07:53:46;21.23;;;13.60;;
15451;SDS011;7827;53.594;9.938;2022-12-18T07:56:18;25.77;;;14.20;;
15451;SDS011;7827;53.594;9.938;2022-12-18T07:58:54;19.93;;;13.60;;
15451;SDS011;7827;53.594;9.938;2022-12-18T08:01:24;20.80;;;14.10;;
15451;SDS011;7827;53.594;9.938;2022-12-18T08:03:53;23.20;;;13.60;;
15451;SDS011;7827;53.594;9.938;2022-12-18T08:06:22;25.63;;;13.87;;
15451;SDS011;7827;53.594;9.938;2022-12-18T08:08:51;24.03;;;14.13;;
15451;SDS011;7827;53.594;9.938;2022-12-18T08:11:20;22.53;;;13.87;;
15451;SDS011;7827;53.594;9.938;2022-12-18T08:13:50;24.73;;;14.03;;
15451;SDS011;7827;53.594;9.938;2022-12-18T08:16:19;22.27;;;14.53;;
15451;SDS011;7827;53.594;9.938;2022-12-18T08:18:51;24.43;;;13.37;;
15451;SDS011;7827;53.594;9.938;2022-12-18T08:21:21;25.67;;;13.73;;
15451;SDS011;7827;53.594;9.938;2022-12-18T08:23:52;21.13;;;13.97;;
15451;SDS011;7827;53.594;9.938;2022-12-18T08:26:22;21.93;;;13.53;;
15451;SDS011;7827;53.594;9.938;2022-12-18T08:28:53;22.80;;;13.00;;
15451;SDS011;7827;53.594;9.938;2022-12-18T08:31:24;24.87;;;13.37;;
15451;SDS011;7827;53.594;9.938;2022-12-18T08:33:56;21.67;;;13.67;;
15451;SDS011;7827;53.594;9.938;2022-12-18T08:36:25;21.73;;;13.80;;
15451;SDS011;7827;53.594;9.938;2022-12-18T08:38:53;21.07;;;13.40;;
15451;SDS011;7827;53.594;9.938;2022-12-18T08:41:22;22.23;;;14.10;;
15451;SDS011;7827;53.594;9.938;2022-12-18T08:43:50;20.37;;;13.10;;
15451;SDS011;7827;53.594;9.938;2022-12-18T08:46:37;21.40;;;12.33;;
15451;SDS011;7827;53.594;9.938;2022-12-18T08:49:09;20.23;;;12.63;;
15451;SDS011;7827;53.594;9.938;2022-12-18T08:51:39;21.17;;;12.97;;
15451;SDS011;7827;53.594;9.938;2022-12-18T08:54:09;24.53;;;13.90;;
15451;SDS011;7827;53.594;9.938;2022-12-18T08:56:40;27.50;;;14.20;;
15451;SDS011;7827;53.594;9.938;2022-12-18T08:59:08;21.63;;;12.50;;
15451;SDS011;7827;53.594;9.938;2022-12-18T09:01:44;20.73;;;13.10;;
15451;SDS011;7827;53.594;9.938;2022-12-18T09:04:15;19.10;;;13.27;;
15451;SDS011;7827;53.594;9.938;2022-12-18T09:06:44;17.80;;;12.77;;
15451;SDS011;7827;53.594;9.938;2022-12-18T09:09:12;20.00;;;13.10;;
15451;SDS011;7827;53.594;9.938;2022-12-18T09:11:40;24.53;;;13.10;;
15451;SDS011;7827;53.594;9.938;2022-12-18T09:14:09;20.30;;;12.70;;
15451;SDS011;7827;53.594;9.938;2022-12-18T09:16:38;27.20;;;13.23;;
15451;SDS011;7827;53.594;9.938;2022-12-18T09:19:06;27.77;;;13.90;;
15451;SDS011;7827;53.594;9.938;2022-12-18T09:21:36;20.33;;;13.33;;
15451;SDS011;7827;53.594;9.938;2022-12-18T09:24:11;20.97;;;13.17;;
15451;SDS011;7827;53.594;9.938;2022-12-18T09:26:40;25.70;;;13.87;;
15451;SDS011;7827;53.594;9.938;2022-12-18T09:29:13;22.97;;;12.80;;
15451;SDS011;7827;53.594;9.938;2022-12-18T09:31:44;23.77;;;12.47;;
15451;SDS011;7827;53.594;9.938;2022-12-18T09:34:13;24.83;;;13.47;;
15451;SDS011;7827;53.594;9.938;2022-12-18T09:36:42;19.57;;;12.57;;
15451;SDS011;7827;53.594;9.938;2022-12-18T09:39:14;23.33;;;13.80;;
15451;SDS011;7827;53.594;9.938;2022-12-18T09:41:45;19.77;;;13.37;;
15451;SDS011;7827;53.594;9.938;2022-12-18T09:44:23;23.50;;;13.60;;
15451;SDS011;7827;53.594;9.938;2022-12-18T09:47:06;19.23;;;12.93;;
15451;SDS011;7827;53.594;9.938;2022-12-18T09:49:42;20.67;;;13.10;;
15451;SDS011;7827;53.594;9.938;2022-12-18T09:52:16;18.57;;;12.30;;
15451;SDS011;7827;53.594;9.938;2022-12-18T09:54:52;18.73;;;12.73;;
15451;SDS011;7827;53.594;9.938;2022-12-18T09:57:28;21.47;;;12.90;;
15451;SDS011;7827;53.594;9.938;2022-12-18T10:00:03;18.90;;;13.23;;
15451;SDS011;7827;53.594;9.938;2022-12-18T10:02:40;20.70;;;14.07;;
15451;SDS011;7827;53.594;9.938;2022-12-18T10:05:10;22.03;;;13.30;;
15451;SDS011;7827;53.594;9.938;2022-12-18T10:07:46;25.07;;;13.40;;
15451;SDS011;7827;53.594;9.938;2022-12-18T10:10:27;19.40;;;12.47;;
15451;SDS011;7827;53.594;9.938;2022-12-18T10:13:09;19.90;;;12.47;;
15451;SDS011;7827;53.594;9.938;2022-12-18T10:15:53;20.90;;;12.37;;
15451;SDS011;7827;53.594;9.938;2022-12-18T10:18:56;22.83;;;12.53;;
15451;SDS011;7827;53.594;9.938;2022-12-18T10:21:42;19.07;;;12.63;;
15451;SDS011;7827;53.594;9.938;2022-12-18T10:24:26;21.80;;;13.80;;
15451;SDS011;7827;53.594;9.938;2022-12-18T10:27:09;22.77;;;13.33;;
15451;SDS011;7827;53.594;9.938;2022-12-18T10:29:42;23.43;;;13.70;;
15451;SDS011;7827;53.594;9.938;2022-12-18T10:32:13;22.23;;;13.33;;
15451;SDS011;7827;53.594;9.938;2022-12-18T10:34:45;23.53;;;13.80;;
15451;SDS011;7827;53.594;9.938;2022-12-18T10:37:15;22.97;;;13.30;;
15451;SDS011;7827;53.594;9.938;2022-12-18T10:39:48;20.90;;;13.90;;
15451;SDS011;7827;53.594;9.938;2022-12-18T10:42:49;17.63;;;12.13;;
15451;SDS011;7827;53.594;9.938;2022-12-18T10:45:33;23.50;;;13.03;;
15451;SDS011;7827;53.594;9.938;2022-12-18T10:48:02;21.00;;;13.73;;
15451;SDS011;7827;53.594;9.938;2022-12-18T10:50:32;19.33;;;13.47;;
15451;SDS011;7827;53.594;9.938;2022-12-18T10:53:24;18.43;;;13.00;;
15451;SDS011;7827;53.594;9.938;2022-12-18T10:55:57;21.50;;;13.57;;
15451;SDS011;7827;53.594;9.938;2022-12-18T10:58:28;20.47;;;12.87;;
15451;SDS011;7827;53.594;9.938;2022-12-18T11:03:47;22.00;;;12.53;;
15451;SDS011;7827;53.594;9.938;2022-12-18T11:06:29;19.90;;;12.37;;
15451;SDS011;7827;53.594;9.938;2022-12-18T11:08:57;17.90;;;11.83;;
15451;SDS011;7827;53.594;9.938;2022-12-18T11:11:40;22.50;;;12.43;;
15451;SDS011;7827;53.594;9.938;2022-12-18T11:14:12;19.77;;;12.60;;
15451;SDS011;7827;53.594;9.938;2022-12-18T11:16:49;22.73;;;12.30;;
15451;SDS011;7827;53.594;9.938;2022-12-18T11:19:39;20.70;;;12.03;;
15451;SDS011;7827;53.594;9.938;2022-12-18T11:22:17;19.17;;;12.70;;
15451;SDS011;7827;53.594;9.938;2022-12-18T11:24:52;20.40;;;12.63;;
15451;SDS011;7827;53.594;9.938;2022-12-18T11:27:48;20.20;;;12.57;;
15451;SDS011;7827;53.594;9.938;2022-12-18T11:30:21;23.13;;;14.13;;
15451;SDS011;7827;53.594;9.938;2022-12-18T11:32:54;22.00;;;13.10;;
15451;SDS011;7827;53.594;9.938;2022-12-18T11:35:35;20.40;;;12.60;;
15451;SDS011;7827;53.594;9.938;2022-12-18T11:38:18;17.43;;;12.40;;
15451;SDS011;7827;53.594;9.938;2022-12-18T11:40:53;20.63;;;12.80;;
15451;SDS011;7827;53.594;9.938;2022-12-18T11:43:31;20.07;;;12.53;;
15451;SDS011;7827;53.594;9.938;2022-12-18T11:46:07;22.43;;;13.20;;
15451;SDS011;7827;53.594;9.938;2022-12-18T11:48:45;22.30;;;12.97;;
15451;SDS011;7827;53.594;9.938;2022-12-18T11:51:23;20.83;;;12.90;;
15451;SDS011;7827;53.594;9.938;2022-12-18T11:53:59;20.77;;;12.63;;
15451;SDS011;7827;53.594;9.938;2022-12-18T11:56:29;18.13;;;12.13;;
15451;SDS011;7827;53.594;9.938;2022-12-18T11:59:07;19.67;;;12.93;;
15451;SDS011;7827;53.594;9.938;2022-12-18T12:01:50;21.47;;;12.87;;
15451;SDS011;7827;53.594;9.938;2022-12-18T12:04:33;20.87;;;12.57;;
15451;SDS011;7827;53.594;9.938;2022-12-18T12:07:45;22.93;;;12.87;;
15451;SDS011;7827;53.594;9.938;2022-12-18T12:10:25;20.00;;;13.00;;
15451;SDS011;7827;53.594;9.938;2022-12-18T12:13:16;25.90;;;14.00;;
15451;SDS011;7827;53.594;9.938;2022-12-18T12:16:02;25.83;;;14.23;;
15451;SDS011;7827;53.594;9.938;2022-12-18T12:18:52;26.13;;;15.77;;
15451;SDS011;7827;53.594;9.938;2022-12-18T12:21:39;29.30;;;15.17;;
15451;SDS011;7827;53.594;9.938;2022-12-18T12:24:15;28.27;;;16.00;;
15451;SDS011;7827;53.594;9.938;2022-12-18T12:27:03;27.03;;;16.60;;
15451;SDS011;7827;53.594;9.938;2022-12-18T12:29:50;29.17;;;16.40;;
15451;SDS011;7827;53.594;9.938;2022-12-18T12:32:40;23.37;;;15.23;;
15451;SDS011;7827;53.594;9.938;2022-12-18T12:35:29;26.97;;;15.80;;
15451;SDS011;7827;53.594;9.938;2022-12-18T12:38:11;28.23;;;16.23;;
15451;SDS011;7827;53.594;9.938;2022-12-18T12:40:45;28.17;;;15.90;;
15451;SDS011;7827;53.594;9.938;2022-12-18T12:43:31;25.20;;;15.10;;
15451;SDS011;7827;53.594;9.938;2022-12-18T12:46:12;29.80;;;15.30;;
15451;SDS011;7827;53.594;9.938;2022-12-18T12:48:46;23.23;;;15.00;;
15451;SDS011;7827;53.594;9.938;2022-12-18T12:51:20;26.37;;;15.73;;
15451;SDS011;7827;53.594;9.938;2022-12-18T12:53:53;29.37;;;16.70;;
15451;SDS011;7827;53.594;9.938;2022-12-18T12:56:26;24.97;;;14.07;;
15451;SDS011;7827;53.594;9.938;2022-12-18T12:59:09;29.13;;;16.53;;
15451;SDS011;7827;53.594;9.938;2022-12-18T13:01:47;26.90;;;15.70;;
15451;SDS011;7827;53.594;9.938;2022-12-18T13:04:27;24.20;;;14.60;;
15451;SDS011;7827;53.594;9.938;2022-12-18T13:07:05;26.43;;;14.33;;
15451;SDS011;7827;53.594;9.938;2022-12-18T13:12:56;23.57;;;14.30;;
15451;SDS011;7827;53.594;9.938;2022-12-18T13:15:31;23.67;;;14.60;;
15451;SDS011;7827;53.594;9.938;2022-12-18T13:18:16;25.50;;;15.60;;
15451;SDS011;7827;53.594;9.938;2022-12-18T13:20:50;24.97;;;14.47;;
15451;SDS011;7827;53.594;9.938;2022-12-18T13:23:33;27.80;;;15.17;;
15451;SDS011;7827;53.594;9.938;2022-12-18T13:28:59;26.33;;;15.43;;
15451;SDS011;7827;53.594;9.938;2022-12-18T13:34:51;27.87;;;15.13;;
15451;SDS011;7827;53.594;9.938;2022-12-18T13:38:19;26.40;;;15.67;;
15451;SDS011;7827;53.594;9.938;2022-12-18T13:40:54;32.77;;;17.40;;
15451;SDS011;7827;53.594;9.938;2022-12-18T13:43:30;31.03;;;16.93;;
15451;SDS011;7827;53.594;9.938;2022-12-18T13:46:21;37.10;;;17.70;;
15451;SDS011;7827;53.594;9.938;2022-12-18T13:48:55;32.67;;;17.17;;
15451;SDS011;7827;53.594;9.938;2022-12-18T13:51:29;30.83;;;17.50;;
15451;SDS011;7827;53.594;9.938;2022-12-18T13:54:06;37.47;;;17.87;;
15451;SDS011;7827;53.594;9.938;2022-12-18T13:56:49;32.80;;;17.17;;
15451;SDS011;7827;53.594;9.938;2022-12-18T13:59:19;32.40;;;17.20;;
15451;SDS011;7827;53.594;9.938;2022-12-18T14:01:52;34.57;;;18.27;;
15451;SDS011;7827;53.594;9.938;2022-12-18T14:04:25;33.77;;;18.03;;
15451;SDS011;7827;53.594;9.938;2022-12-18T14:06:57;33.17;;;17.73;;
15451;SDS011;7827;53.594;9.938;2022-12-18T14:09:35;32.60;;;17.37;;
15451;SDS011;7827;53.594;9.938;2022-12-18T14:12:14;35.30;;;18.90;;
15451;SDS011;7827;53.594;9.938;2022-12-18T14:15:03;33.90;;;17.83;;
15451;SDS011;7827;53.594;9.938;2022-12-18T14:17:42;34.80;;;18.57;;
15451;SDS011;7827;53.594;9.938;2022-12-18T14:20:12;35.97;;;18.83;;
15451;SDS011;7827;53.594;9.938;2022-12-18T14:22:42;34.50;;;18.13;;
15451;SDS011;7827;53.594;9.938;2022-12-18T14:25:17;35.23;;;17.53;;
15451;SDS011;7827;53.594;9.938;2022-12-18T14:27:50;32.50;;;17.40;;
15451;SDS011;7827;53.594;9.938;2022-12-18T14:30:24;31.60;;;17.97;;
15451;SDS011;7827;53.594;9.938;2022-12-18T14:33:02;37.37;;;17.50;;
15451;SDS011;7827;53.594;9.938;2022-12-18T14:35:34;29.87;;;16.13;;
15451;SDS011;7827;53.594;9.938;2022-12-18T14:38:09;35.13;;;17.77;;
15451;SDS011;7827;53.594;9.938;2022-12-18T14:40:54;32.60;;;17.70;;
15451;SDS011;7827;53.594;9.938;2022-12-18T14:43:25;36.10;;;19.20;;
15451;SDS011;7827;53.594;9.938;2022-12-18T14:45:55;40.07;;;19.50;;
15451;SDS011;7827;53.594;9.938;2022-12-18T14:48:31;38.63;;;18.77;;
15451;SDS011;7827;53.594;9.938;2022-12-18T14:51:05;37.73;;;19.83;;
15451;SDS011;7827;53.594;9.938;2022-12-18T14:53:44;36.63;;;19.07;;
15451;SDS011;7827;53.594;9.938;2022-12-18T14:56:21;38.83;;;19.90;;
15451;SDS011;7827;53.594;9.938;2022-12-18T14:58:53;38.30;;;20.00;;
15451;SDS011;7827;53.594;9.938;2022-12-18T15:01:24;36.70;;;18.90;;
15451;SDS011;7827;53.594;9.938;2022-12-18T15:03:57;42.47;;;20.03;;
15451;SDS011;7827;53.594;9.938;2022-12-18T15:06:28;37.73;;;19.80;;
15451;SDS011;7827;53.594;9.938;2022-12-18T15:09:00;41.93;;;20.77;;
15451;SDS011;7827;53.594;9.938;2022-12-18T15:11:34;40.37;;;19.90;;
15451;SDS011;7827;53.594;9.938;2022-12-18T15:14:21;44.70;;;21.20;;
15451;SDS011;7827;53.594;9.938;2022-12-18T15:16:57;46.17;;;20.43;;
15451;SDS011;7827;53.594;9.938;2022-12-18T15:19:32;42.87;;;20.83;;
15451;SDS011;7827;53.594;9.938;2022-12-18T15:22:14;41.93;;;21.37;;
15451;SDS011;7827;53.594;9.938;2022-12-18T15:24:49;39.97;;;20.73;;